sensor_id;sensor_type;location;lat;lon;timestamp;pressure;altitude;pressure_sealevel;temperature;humidity
62333;BME280;48624;49.812;8.562;2023-02-08T00:01:14;102825.81;;;-2.10;70.90
62333;BME280;48624;49.812;8.562;2023-02-08T00:03:39;102819.72;;;-2.12;70.57
62333;BME280;48624;49.812;8.562;2023-02-08T00:06:07;102821.03;;;-2.28;71.35
62333;BME280;48624;49.812;8.562;2023-02-08T00:08:33;102823.63;;;-2.28;71.50
62333;BME280;48624;49.812;8.562;2023-02-08T00:10:59;102817.75;;;-2.21;70.99
62333;BME280;48624;49.812;8.562;2023-02-08T00:13:24;102809.69;;;-1.95;70.49
62333;BME280;48624;49.812;8.562;2023-02-08T00:15:51;102820.97;;;-2.31;72.01
62333;BME280;48624;49.812;8.562;2023-02-08T00:18:17;102821.59;;;-2.05;70.79
62333;BME280;48624;49.812;8.562;2023-02-08T00:20:43;102825.41;;;-2.27;71.17
62333;BME280;48624;49.812;8.562;2023-02-08T00:23:08;102817.13;;;-2.11;70.63
62333;BME280;48624;49.812;8.562;2023-02-08T00:25:34;102816.34;;;-2.45;72.20
62333;BME280;48624;49.812;8.562;2023-02-08T00:28:00;102816.91;;;-2.21;71.62
62333;BME280;48624;49.812;8.562;2023-02-08T00:30:25;102823.34;;;-2.41;72.02
62333;BME280;48624;49.812;8.562;2023-02-08T00:32:50;102823.75;;;-2.24;71.61
62333;BME280;48624;49.812;8.562;2023-02-08T00:35:16;102814.50;;;-2.49;72.68
62333;BME280;48624;49.812;8.562;2023-02-08T00:37:41;102818.00;;;-2.47;72.49
62333;BME280;48624;49.812;8.562;2023-02-08T00:40:07;102817.94;;;-2.50;72.63
62333;BME280;48624;49.812;8.562;2023-02-08T00:42:33;102815.41;;;-2.47;72.38
62333;BME280;48624;49.812;8.562;2023-02-08T00:44:58;102807.50;;;-2.52;72.30
62333;BME280;48624;49.812;8.562;2023-02-08T00:47:23;102813.34;;;-2.60;72.92
62333;BME280;48624;49.812;8.562;2023-02-08T00:49:49;102811.75;;;-2.55;72.76
62333;BME280;48624;49.812;8.562;2023-02-08T00:52:15;102822.88;;;-2.59;73.20
62333;BME280;48624;49.812;8.562;2023-02-08T00:54:40;102823.50;;;-2.70;73.90
62333;BME280;48624;49.812;8.562;2023-02-08T00:57:07;102820.47;;;-2.87;76.16
62333;BME280;48624;49.812;8.562;2023-02-08T00:59:32;102818.59;;;-2.93;76.22
62333;BME280;48624;49.812;8.562;2023-02-08T01:01:58;102824.63;;;-2.94;77.23
62333;BME280;48624;49.812;8.562;2023-02-08T01:04:23;102819.97;;;-3.05;78.32
62333;BME280;48624;49.812;8.562;2023-02-08T01:06:48;102819.22;;;-3.01;77.83
62333;BME280;48624;49.812;8.562;2023-02-08T01:09:15;102816.50;;;-3.06;77.76
62333;BME280;48624;49.812;8.562;2023-02-08T01:11:41;102813.81;;;-3.41;78.51
62333;BME280;48624;49.812;8.562;2023-02-08T01:14:06;102824.47;;;-3.30;78.44
62333;BME280;48624;49.812;8.562;2023-02-08T01:16:32;102818.97;;;-3.11;76.27
62333;BME280;48624;49.812;8.562;2023-02-08T01:18:59;102821.41;;;-3.17;78.03
62333;BME280;48624;49.812;8.562;2023-02-08T01:21:27;102817.31;;;-3.39;79.20
62333;BME280;48624;49.812;8.562;2023-02-08T01:23:53;102816.41;;;-3.41;79.42
62333;BME280;48624;49.812;8.562;2023-02-08T01:26:19;102817.34;;;-3.38;78.57
62333;BME280;48624;49.812;8.562;2023-02-08T01:28:46;102807.09;;;-3.33;78.54
62333;BME280;48624;49.812;8.562;2023-02-08T01:31:14;102803.53;;;-3.38;79.31
62333;BME280;48624;49.812;8.562;2023-02-08T01:33:39;102805.19;;;-3.40;80.11
62333;BME280;48624;49.812;8.562;2023-02-08T01:36:05;102808.38;;;-3.49;79.47
62333;BME280;48624;49.812;8.562;2023-02-08T01:38:31;102806.06;;;-3.40;78.17
62333;BME280;48624;49.812;8.562;2023-02-08T01:40:58;102807.13;;;-3.64;79.60
62333;BME280;48624;49.812;8.562;2023-02-08T01:43:31;102808.34;;;-3.81;80.53
62333;BME280;48624;49.812;8.562;2023-02-08T01:45:57;102802.53;;;-3.72;79.96
62333;BME280;48624;49.812;8.562;2023-02-08T01:48:31;102803.03;;;-3.86;80.07
62333;BME280;48624;49.812;8.562;2023-02-08T01:51:01;102805.19;;;-3.71;79.32
62333;BME280;48624;49.812;8.562;2023-02-08T01:53:29;102799.16;;;-3.70;80.16
62333;BME280;48624;49.812;8.562;2023-02-08T01:55:59;102800.97;;;-3.67;80.50
62333;BME280;48624;49.812;8.562;2023-02-08T01:58:27;102792.28;;;-3.69;80.22
62333;BME280;48624;49.812;8.562;2023-02-08T02:00:53;102786.22;;;-3.70;80.78
62333;BME280;48624;49.812;8.562;2023-02-08T02:03:21;102788.84;;;-3.68;80.17
62333;BME280;48624;49.812;8.562;2023-02-08T02:05:53;102783.56;;;-3.71;80.04
62333;BME280;48624;49.812;8.562;2023-02-08T02:08:20;102779.84;;;-3.81;80.11
62333;BME280;48624;49.812;8.562;2023-02-08T02:10:47;102784.06;;;-3.85;80.80
62333;BME280;48624;49.812;8.562;2023-02-08T02:13:19;102783.47;;;-3.74;79.51
62333;BME280;48624;49.812;8.562;2023-02-08T02:15:45;102784.28;;;-3.77;80.74
62333;BME280;48624;49.812;8.562;2023-02-08T02:18:31;102774.03;;;-3.72;79.89
62333;BME280;48624;49.812;8.562;2023-02-08T02:24:04;102788.44;;;-3.82;80.44
62333;BME280;48624;49.812;8.562;2023-02-08T02:30:12;102792.81;;;-4.09;83.09
62333;BME280;48624;49.812;8.562;2023-02-08T02:35:27;102784.47;;;-4.00;81.23
62333;BME280;48624;49.812;8.562;2023-02-08T02:41:09;102788.44;;;-3.82;79.99
62333;BME280;48624;49.812;8.562;2023-02-08T02:44:02;102784.63;;;-3.94;81.20
62333;BME280;48624;49.812;8.562;2023-02-08T02:46:40;102789.94;;;-3.89;79.62
62333;BME280;48624;49.812;8.562;2023-02-08T02:49:17;102780.50;;;-3.88;80.42
62333;BME280;48624;49.812;8.562;2023-02-08T02:54:42;102774.88;;;-4.02;82.52
62333;BME280;48624;49.812;8.562;2023-02-08T02:57:13;102771.81;;;-4.18;83.75
62333;BME280;48624;49.812;8.562;2023-02-08T02:59:39;102772.16;;;-4.07;82.65
62333;BME280;48624;49.812;8.562;2023-02-08T03:02:05;102777.41;;;-4.33;85.10
62333;BME280;48624;49.812;8.562;2023-02-08T03:07:19;102772.91;;;-4.39;85.41
62333;BME280;48624;49.812;8.562;2023-02-08T03:26:30;102756.53;;;-4.38;84.42
62333;BME280;48624;49.812;8.562;2023-02-08T03:29:14;102761.34;;;-4.50;84.96
62333;BME280;48624;49.812;8.562;2023-02-08T03:36:52;102760.75;;;-4.41;83.91
62333;BME280;48624;49.812;8.562;2023-02-08T03:39:22;102770.44;;;-4.36;83.36
62333;BME280;48624;49.812;8.562;2023-02-08T03:41:52;102762.75;;;-4.33;82.54
62333;BME280;48624;49.812;8.562;2023-02-08T03:44:31;102768.31;;;-4.20;82.04
62333;BME280;48624;49.812;8.562;2023-02-08T03:47:03;102768.72;;;-4.08;81.05
62333;BME280;48624;49.812;8.562;2023-02-08T03:49:33;102768.84;;;-4.03;80.61
62333;BME280;48624;49.812;8.562;2023-02-08T03:52:02;102768.84;;;-4.03;79.80
62333;BME280;48624;49.812;8.562;2023-02-08T03:54:30;102774.78;;;-3.77;77.85
62333;BME280;48624;49.812;8.562;2023-02-08T03:57:20;102776.88;;;-3.65;77.31
62333;BME280;48624;49.812;8.562;2023-02-08T03:59:53;102777.16;;;-3.54;76.95
62333;BME280;48624;49.812;8.562;2023-02-08T04:02:20;102772.75;;;-3.58;78.09
62333;BME280;48624;49.812;8.562;2023-02-08T04:04:49;102767.03;;;-3.46;77.08
62333;BME280;48624;49.812;8.562;2023-02-08T04:07:17;102767.84;;;-3.47;77.04
62333;BME280;48624;49.812;8.562;2023-02-08T04:09:43;102767.31;;;-3.35;76.89
62333;BME280;48624;49.812;8.562;2023-02-08T04:12:08;102763.84;;;-3.03;75.81
62333;BME280;48624;49.812;8.562;2023-02-08T04:14:35;102762.06;;;-3.04;75.26
62333;BME280;48624;49.812;8.562;2023-02-08T04:17:00;102760.81;;;-3.21;75.55
62333;BME280;48624;49.812;8.562;2023-02-08T04:19:26;102760.03;;;-3.16;75.40
62333;BME280;48624;49.812;8.562;2023-02-08T04:21:51;102761.88;;;-2.79;74.45
62333;BME280;48624;49.812;8.562;2023-02-08T04:24:16;102759.47;;;-2.71;73.26
62333;BME280;48624;49.812;8.562;2023-02-08T04:26:42;102750.94;;;-3.00;74.55
62333;BME280;48624;49.812;8.562;2023-02-08T04:29:07;102756.16;;;-2.99;74.02
62333;BME280;48624;49.812;8.562;2023-02-08T04:31:32;102761.59;;;-2.89;74.33
62333;BME280;48624;49.812;8.562;2023-02-08T04:33:58;102762.09;;;-3.37;76.24
62333;BME280;48624;49.812;8.562;2023-02-08T04:36:23;102764.81;;;-3.32;76.17
62333;BME280;48624;49.812;8.562;2023-02-08T04:38:48;102761.63;;;-3.54;76.60
62333;BME280;48624;49.812;8.562;2023-02-08T04:41:14;102760.00;;;-3.50;76.92
62333;BME280;48624;49.812;8.562;2023-02-08T04:43:39;102749.28;;;-3.32;76.65
62333;BME280;48624;49.812;8.562;2023-02-08T04:46:04;102754.84;;;-3.49;76.68
62333;BME280;48624;49.812;8.562;2023-02-08T04:48:30;102755.50;;;-3.56;76.95
62333;BME280;48624;49.812;8.562;2023-02-08T04:50:56;102756.34;;;-3.57;76.99
62333;BME280;48624;49.812;8.562;2023-02-08T04:53:22;102757.06;;;-3.63;76.53
62333;BME280;48624;49.812;8.562;2023-02-08T04:55:47;102753.94;;;-3.81;77.98
62333;BME280;48624;49.812;8.562;2023-02-08T04:58:13;102755.19;;;-3.67;77.84
62333;BME280;48624;49.812;8.562;2023-02-08T05:00:38;102755.28;;;-3.94;78.96
62333;BME280;48624;49.812;8.562;2023-02-08T05:03:03;102764.47;;;-3.75;77.92
62333;BME280;48624;49.812;8.562;2023-02-08T05:05:29;102767.53;;;-3.88;78.77
62333;BME280;48624;49.812;8.562;2023-02-08T05:07:54;102756.69;;;-3.75;78.56
62333;BME280;48624;49.812;8.562;2023-02-08T05:10:20;102755.47;;;-3.88;78.81
62333;BME280;48624;49.812;8.562;2023-02-08T05:12:45;102751.16;;;-3.87;79.00
62333;BME280;48624;49.812;8.562;2023-02-08T05:15:11;102757.50;;;-4.07;80.26
62333;BME280;48624;49.812;8.562;2023-02-08T05:17:36;102765.16;;;-3.81;78.63
62333;BME280;48624;49.812;8.562;2023-02-08T05:20:03;102762.41;;;-3.87;78.65
62333;BME280;48624;49.812;8.562;2023-02-08T05:22:30;102762.75;;;-3.74;78.82
62333;BME280;48624;49.812;8.562;2023-02-08T05:24:56;102758.09;;;-3.86;79.11
62333;BME280;48624;49.812;8.562;2023-02-08T05:27:22;102761.03;;;-4.05;79.58
62333;BME280;48624;49.812;8.562;2023-02-08T05:29:47;102753.03;;;-4.12;80.12
62333;BME280;48624;49.812;8.562;2023-02-08T05:32:13;102748.28;;;-3.97;79.16
62333;BME280;48624;49.812;8.562;2023-02-08T05:34:38;102743.91;;;-3.99;78.39
62333;BME280;48624;49.812;8.562;2023-02-08T05:37:04;102739.25;;;-3.81;78.71
62333;BME280;48624;49.812;8.562;2023-02-08T05:39:29;102746.91;;;-3.55;77.13
62333;BME280;48624;49.812;8.562;2023-02-08T05:41:54;102745.41;;;-3.77;76.97
62333;BME280;48624;49.812;8.562;2023-02-08T05:44:20;102747.00;;;-3.82;77.43
62333;BME280;48624;49.812;8.562;2023-02-08T05:46:45;102747.44;;;-3.97;77.94
62333;BME280;48624;49.812;8.562;2023-02-08T05:49:10;102735.03;;;-3.77;76.84
62333;BME280;48624;49.812;8.562;2023-02-08T05:51:36;102751.34;;;-3.81;76.76
62333;BME280;48624;49.812;8.562;2023-02-08T05:54:01;102749.56;;;-3.52;75.44
62333;BME280;48624;49.812;8.562;2023-02-08T05:56:26;102757.06;;;-3.30;75.00
62333;BME280;48624;49.812;8.562;2023-02-08T05:58:52;102756.56;;;-3.49;75.58
62333;BME280;48624;49.812;8.562;2023-02-08T06:01:19;102755.38;;;-3.28;73.13
62333;BME280;48624;49.812;8.562;2023-02-08T06:03:45;102763.09;;;-3.31;73.98
62333;BME280;48624;49.812;8.562;2023-02-08T06:06:10;102762.91;;;-3.39;73.52
62333;BME280;48624;49.812;8.562;2023-02-08T06:08:36;102763.63;;;-3.11;72.30
62333;BME280;48624;49.812;8.562;2023-02-08T06:11:02;102761.03;;;-3.11;71.76
62333;BME280;48624;49.812;8.562;2023-02-08T06:13:27;102757.47;;;-2.81;70.62
62333;BME280;48624;49.812;8.562;2023-02-08T06:15:53;102762.03;;;-3.06;71.25
62333;BME280;48624;49.812;8.562;2023-02-08T06:18:19;102757.72;;;-2.72;70.34
62333;BME280;48624;49.812;8.562;2023-02-08T06:20:44;102762.94;;;-2.70;69.08
62333;BME280;48624;49.812;8.562;2023-02-08T06:23:09;102765.03;;;-2.90;69.88
62333;BME280;48624;49.812;8.562;2023-02-08T06:25:35;102765.22;;;-2.83;69.76
62333;BME280;48624;49.812;8.562;2023-02-08T06:28:00;102767.81;;;-2.83;69.33
62333;BME280;48624;49.812;8.562;2023-02-08T06:30:25;102770.78;;;-3.02;69.97
62333;BME280;48624;49.812;8.562;2023-02-08T06:32:51;102773.66;;;-2.91;70.30
62333;BME280;48624;49.812;8.562;2023-02-08T06:35:16;102779.06;;;-2.47;68.77
62333;BME280;48624;49.812;8.562;2023-02-08T06:37:41;102771.97;;;-2.89;69.91
62333;BME280;48624;49.812;8.562;2023-02-08T06:40:07;102781.34;;;-2.95;69.57
62333;BME280;48624;49.812;8.562;2023-02-08T06:42:33;102778.59;;;-3.01;70.30
62333;BME280;48624;49.812;8.562;2023-02-08T06:44:58;102776.34;;;-2.53;68.77
62333;BME280;48624;49.812;8.562;2023-02-08T06:47:25;102777.34;;;-2.82;69.73
62333;BME280;48624;49.812;8.562;2023-02-08T06:49:51;102775.88;;;-3.05;69.81
62333;BME280;48624;49.812;8.562;2023-02-08T06:52:17;102782.78;;;-2.72;69.53
62333;BME280;48624;49.812;8.562;2023-02-08T06:54:43;102784.50;;;-3.07;70.43
62333;BME280;48624;49.812;8.562;2023-02-08T06:57:09;102782.75;;;-3.08;70.69
62333;BME280;48624;49.812;8.562;2023-02-08T06:59:37;102779.88;;;-3.18;71.08
62333;BME280;48624;49.812;8.562;2023-02-08T07:02:02;102785.63;;;-3.29;71.94
62333;BME280;48624;49.812;8.562;2023-02-08T07:04:29;102779.75;;;-3.54;72.86
62333;BME280;48624;49.812;8.562;2023-02-08T07:06:54;102789.41;;;-3.48;74.00
62333;BME280;48624;49.812;8.562;2023-02-08T07:09:19;102788.75;;;-3.71;74.95
62333;BME280;48624;49.812;8.562;2023-02-08T07:11:45;102782.00;;;-3.36;74.84
62333;BME280;48624;49.812;8.562;2023-02-08T07:14:14;102787.47;;;-3.86;76.19
62333;BME280;48624;49.812;8.562;2023-02-08T07:16:39;102784.50;;;-3.69;75.98
62333;BME280;48624;49.812;8.562;2023-02-08T07:19:05;102792.94;;;-4.06;77.62
62333;BME280;48624;49.812;8.562;2023-02-08T07:21:32;102787.19;;;-3.95;77.55
62333;BME280;48624;49.812;8.562;2023-02-08T07:23:57;102789.22;;;-4.14;78.81
62333;BME280;48624;49.812;8.562;2023-02-08T07:26:22;102776.34;;;-3.83;77.84
62333;BME280;48624;49.812;8.562;2023-02-08T07:28:47;102789.59;;;-4.01;78.08
62333;BME280;48624;49.812;8.562;2023-02-08T07:31:14;102784.44;;;-4.29;79.50
62333;BME280;48624;49.812;8.562;2023-02-08T07:33:40;102777.81;;;-3.61;76.71
62333;BME280;48624;49.812;8.562;2023-02-08T07:36:06;102783.91;;;-4.19;79.05
62333;BME280;48624;49.812;8.562;2023-02-08T07:38:32;102782.28;;;-4.15;79.73
62333;BME280;48624;49.812;8.562;2023-02-08T07:41:04;102785.38;;;-3.98;79.24
62333;BME280;48624;49.812;8.562;2023-02-08T07:43:29;102787.91;;;-3.99;79.01
62333;BME280;48624;49.812;8.562;2023-02-08T07:45:55;102781.38;;;-3.88;79.04
62333;BME280;48624;49.812;8.562;2023-02-08T07:48:20;102774.69;;;-3.80;78.88
62333;BME280;48624;49.812;8.562;2023-02-08T07:50:45;102772.09;;;-3.80;78.52
62333;BME280;48624;49.812;8.562;2023-02-08T07:53:11;102771.63;;;-3.66;78.36
62333;BME280;48624;49.812;8.562;2023-02-08T07:55:36;102765.22;;;-3.79;78.47
62333;BME280;48624;49.812;8.562;2023-02-08T07:58:01;102765.69;;;-3.62;77.96
62333;BME280;48624;49.812;8.562;2023-02-08T08:00:26;102770.66;;;-3.70;78.12
62333;BME280;48624;49.812;8.562;2023-02-08T08:02:52;102760.44;;;-3.33;76.69
62333;BME280;48624;49.812;8.562;2023-02-08T08:05:18;102767.16;;;-3.41;77.12
62333;BME280;48624;49.812;8.562;2023-02-08T08:07:43;102771.91;;;-3.25;76.44
62333;BME280;48624;49.812;8.562;2023-02-08T08:10:08;102771.72;;;-2.99;74.88
62333;BME280;48624;49.812;8.562;2023-02-08T08:12:34;102767.06;;;-3.12;75.15
62333;BME280;48624;49.812;8.562;2023-02-08T08:14:59;102773.78;;;-2.87;74.32
62333;BME280;48624;49.812;8.562;2023-02-08T08:17:24;102768.34;;;-2.61;73.27
62333;BME280;48624;49.812;8.562;2023-02-08T08:19:50;102774.72;;;-2.48;71.90
62333;BME280;48624;49.812;8.562;2023-02-08T08:22:15;102773.16;;;-2.41;71.10
62333;BME280;48624;49.812;8.562;2023-02-08T08:24:40;102767.69;;;-2.52;71.63
62333;BME280;48624;49.812;8.562;2023-02-08T08:27:06;102772.97;;;-2.12;70.08
62333;BME280;48624;49.812;8.562;2023-02-08T08:29:33;102783.25;;;-2.15;70.04
62333;BME280;48624;49.812;8.562;2023-02-08T08:31:59;102778.00;;;-2.18;70.19
62333;BME280;48624;49.812;8.562;2023-02-08T08:34:24;102767.72;;;-1.74;69.08
62333;BME280;48624;49.812;8.562;2023-02-08T08:36:57;102775.66;;;-2.07;69.52
62333;BME280;48624;49.812;8.562;2023-02-08T08:39:23;102780.22;;;-1.97;69.49
62333;BME280;48624;49.812;8.562;2023-02-08T08:41:49;102785.41;;;-1.96;69.33
62333;BME280;48624;49.812;8.562;2023-02-08T08:44:14;102773.97;;;-2.05;70.16
62333;BME280;48624;49.812;8.562;2023-02-08T08:46:39;102771.22;;;-1.72;69.18
62333;BME280;48624;49.812;8.562;2023-02-08T08:49:05;102767.25;;;-1.54;68.91
62333;BME280;48624;49.812;8.562;2023-02-08T08:51:30;102775.41;;;-1.34;67.42
62333;BME280;48624;49.812;8.562;2023-02-08T08:54:02;102764.47;;;-1.63;68.69
62333;BME280;48624;49.812;8.562;2023-02-08T08:56:28;102762.22;;;-1.45;67.18
62333;BME280;48624;49.812;8.562;2023-02-08T08:58:55;102776.13;;;-1.43;66.49
62333;BME280;48624;49.812;8.562;2023-02-08T09:01:21;102771.31;;;-1.22;66.41
62333;BME280;48624;49.812;8.562;2023-02-08T09:03:47;102766.13;;;-1.22;66.99
62333;BME280;48624;49.812;8.562;2023-02-08T09:06:12;102764.16;;;-0.87;66.52
62333;BME280;48624;49.812;8.562;2023-02-08T09:08:38;102764.47;;;-0.68;65.83
62333;BME280;48624;49.812;8.562;2023-02-08T09:11:10;102758.66;;;-0.51;61.71
62333;BME280;48624;49.812;8.562;2023-02-08T09:13:37;102767.22;;;-0.59;60.18
62333;BME280;48624;49.812;8.562;2023-02-08T09:16:11;102760.69;;;-0.32;60.70
62333;BME280;48624;49.812;8.562;2023-02-08T09:18:37;102758.72;;;-0.45;60.03
62333;BME280;48624;49.812;8.562;2023-02-08T09:21:11;102759.97;;;-0.21;59.29
62333;BME280;48624;49.812;8.562;2023-02-08T09:23:37;102755.75;;;-0.11;58.38
62333;BME280;48624;49.812;8.562;2023-02-08T09:26:04;102746.56;;;0.19;57.45
62333;BME280;48624;49.812;8.562;2023-02-08T09:28:30;102763.53;;;-0.15;58.20
62333;BME280;48624;49.812;8.562;2023-02-08T09:30:56;102759.41;;;0.02;58.71
62333;BME280;48624;49.812;8.562;2023-02-08T09:33:21;102756.88;;;0.08;57.85
62333;BME280;48624;49.812;8.562;2023-02-08T09:35:46;102764.03;;;0.23;58.21
62333;BME280;48624;49.812;8.562;2023-02-08T09:38:12;102757.88;;;0.16;59.19
62333;BME280;48624;49.812;8.562;2023-02-08T09:43:44;102753.44;;;0.10;57.59
62333;BME280;48624;49.812;8.562;2023-02-08T09:46:21;102757.59;;;0.68;55.83
62333;BME280;48624;49.812;8.562;2023-02-08T09:48:51;102749.72;;;0.65;56.67
62333;BME280;48624;49.812;8.562;2023-02-08T09:51:40;102744.53;;;0.67;55.94
62333;BME280;48624;49.812;8.562;2023-02-08T09:54:15;102749.88;;;0.78;55.55
62333;BME280;48624;49.812;8.562;2023-02-08T09:56:43;102754.38;;;0.94;54.14
62333;BME280;48624;49.812;8.562;2023-02-08T09:59:22;102756.81;;;0.77;54.80
62333;BME280;48624;49.812;8.562;2023-02-08T10:01:50;102751.63;;;0.80;54.85
62333;BME280;48624;49.812;8.562;2023-02-08T10:07:12;102748.88;;;1.69;53.08
62333;BME280;48624;49.812;8.562;2023-02-08T10:09:38;102743.59;;;1.65;51.92
62333;BME280;48624;49.812;8.562;2023-02-08T10:12:05;102740.97;;;1.58;52.08
62333;BME280;48624;49.812;8.562;2023-02-08T10:20:11;102742.88;;;1.87;49.75
62333;BME280;48624;49.812;8.562;2023-02-08T10:26:16;102739.53;;;2.13;48.80
62333;BME280;48624;49.812;8.562;2023-02-08T10:35:14;102734.50;;;2.78;48.68
62333;BME280;48624;49.812;8.562;2023-02-08T10:37:43;102731.03;;;3.27;46.79
62333;BME280;48624;49.812;8.562;2023-02-08T10:42:47;102719.66;;;2.88;46.21
62333;BME280;48624;49.812;8.562;2023-02-08T10:48:26;102721.41;;;3.23;47.50
62333;BME280;48624;49.812;8.562;2023-02-08T10:50:53;102719.69;;;3.38;45.55
62333;BME280;48624;49.812;8.562;2023-02-08T10:53:19;102719.66;;;3.56;47.50
62333;BME280;48624;49.812;8.562;2023-02-08T10:55:46;102721.28;;;3.93;45.90
62333;BME280;48624;49.812;8.562;2023-02-08T10:58:18;102714.44;;;3.38;45.03
62333;BME280;48624;49.812;8.562;2023-02-08T11:00:44;102706.50;;;3.80;44.03
62333;BME280;48624;49.812;8.562;2023-02-08T11:03:25;102705.53;;;3.98;43.18
62333;BME280;48624;49.812;8.562;2023-02-08T11:05:51;102701.91;;;4.25;43.06
62333;BME280;48624;49.812;8.562;2023-02-08T11:08:22;102700.28;;;4.04;42.83
62333;BME280;48624;49.812;8.562;2023-02-08T11:11:06;102714.41;;;3.61;43.53
62333;BME280;48624;49.812;8.562;2023-02-08T11:13:41;102705.59;;;3.78;43.82
62333;BME280;48624;49.812;8.562;2023-02-08T11:16:25;102697.28;;;4.69;43.59
62333;BME280;48624;49.812;8.562;2023-02-08T11:18:57;102687.88;;;4.33;43.86
62333;BME280;48624;49.812;8.562;2023-02-08T11:21:33;102690.34;;;4.59;42.42
62333;BME280;48624;49.812;8.562;2023-02-08T11:26:47;102686.59;;;4.93;43.12
62333;BME280;48624;49.812;8.562;2023-02-08T11:29:17;102675.56;;;4.47;43.77
62333;BME280;48624;49.812;8.562;2023-02-08T11:31:57;102667.00;;;5.28;42.29
62333;BME280;48624;49.812;8.562;2023-02-08T11:34:36;102676.72;;;5.23;42.06
62333;BME280;48624;49.812;8.562;2023-02-08T11:37:23;102675.91;;;5.14;40.92
62333;BME280;48624;49.812;8.562;2023-02-08T11:39:54;102676.03;;;4.99;40.83
62333;BME280;48624;49.812;8.562;2023-02-08T11:42:24;102677.19;;;5.62;41.03
62333;BME280;48624;49.812;8.562;2023-02-08T11:44:51;102668.97;;;5.07;40.99
62333;BME280;48624;49.812;8.562;2023-02-08T11:47:24;102661.91;;;5.94;38.99
62333;BME280;48624;49.812;8.562;2023-02-08T11:49:52;102658.81;;;4.64;41.15
62333;BME280;48624;49.812;8.562;2023-02-08T11:54:46;102660.28;;;5.00;40.40
62333;BME280;48624;49.812;8.562;2023-02-08T11:57:13;102641.44;;;5.46;39.72
62333;BME280;48624;49.812;8.562;2023-02-08T11:59:38;102639.84;;;5.29;39.98
62333;BME280;48624;49.812;8.562;2023-02-08T12:02:34;102645.53;;;5.68;39.47
62333;BME280;48624;49.812;8.562;2023-02-08T12:05:00;102641.31;;;5.57;39.74
62333;BME280;48624;49.812;8.562;2023-02-08T12:07:44;102639.13;;;5.91;39.12
62333;BME280;48624;49.812;8.562;2023-02-08T12:10:39;102635.63;;;6.57;38.19
62333;BME280;48624;49.812;8.562;2023-02-08T12:13:40;102637.31;;;5.23;40.43
62333;BME280;48624;49.812;8.562;2023-02-08T12:19:06;102628.25;;;5.49;38.57
62333;BME280;48624;49.812;8.562;2023-02-08T12:21:41;102631.75;;;5.51;39.07
62333;BME280;48624;49.812;8.562;2023-02-08T12:32:59;102616.44;;;6.48;36.83
62333;BME280;48624;49.812;8.562;2023-02-08T12:35:48;102621.47;;;6.64;37.14
62333;BME280;48624;49.812;8.562;2023-02-08T12:41:42;102611.66;;;6.14;37.68
62333;BME280;48624;49.812;8.562;2023-02-08T12:49:22;102589.78;;;6.67;37.97
62333;BME280;48624;49.812;8.562;2023-02-08T12:54:32;102572.81;;;7.29;36.35
62333;BME280;48624;49.812;8.562;2023-02-08T12:57:01;102568.25;;;6.92;37.37
62333;BME280;48624;49.812;8.562;2023-02-08T12:59:43;102563.31;;;6.73;35.85
62333;BME280;48624;49.812;8.562;2023-02-08T13:02:18;102570.91;;;6.40;36.01
62333;BME280;48624;49.812;8.562;2023-02-08T13:04:48;102558.47;;;7.44;35.64
62333;BME280;48624;49.812;8.562;2023-02-08T13:10:13;102555.34;;;6.78;35.52
62333;BME280;48624;49.812;8.562;2023-02-08T13:12:47;102564.44;;;6.60;35.84
62333;BME280;48624;49.812;8.562;2023-02-08T13:15:23;102561.56;;;6.75;36.20
62333;BME280;48624;49.812;8.562;2023-02-08T13:18:00;102553.88;;;7.10;35.15
62333;BME280;48624;49.812;8.562;2023-02-08T13:20:38;102548.50;;;6.68;36.44
62333;BME280;48624;49.812;8.562;2023-02-08T13:23:25;102547.59;;;7.60;34.35
62333;BME280;48624;49.812;8.562;2023-02-08T13:25:55;102542.88;;;7.33;35.18
62333;BME280;48624;49.812;8.562;2023-02-08T13:28:24;102539.16;;;7.42;36.22
62333;BME280;48624;49.812;8.562;2023-02-08T13:31:12;102538.91;;;7.11;35.89
62333;BME280;48624;49.812;8.562;2023-02-08T13:33:43;102535.53;;;7.48;35.49
62333;BME280;48624;49.812;8.562;2023-02-08T13:36:23;102531.44;;;6.38;35.66
62333;BME280;48624;49.812;8.562;2023-02-08T13:38:50;102525.84;;;6.57;36.03
62333;BME280;48624;49.812;8.562;2023-02-08T13:41:20;102512.72;;;6.56;36.89
62333;BME280;48624;49.812;8.562;2023-02-08T13:43:51;102509.63;;;6.82;36.52
62333;BME280;48624;49.812;8.562;2023-02-08T13:46:18;102507.00;;;7.66;35.77
62333;BME280;48624;49.812;8.562;2023-02-08T13:48:47;102503.13;;;7.82;35.22
62333;BME280;48624;49.812;8.562;2023-02-08T14:04:44;102503.16;;;7.81;34.41
62333;BME280;48624;49.812;8.562;2023-02-08T14:10:02;102499.72;;;7.38;35.42
62333;BME280;48624;49.812;8.562;2023-02-08T14:12:44;102493.91;;;7.20;35.52
62333;BME280;48624;49.812;8.562;2023-02-08T14:17:48;102493.72;;;7.29;35.14
62333;BME280;48624;49.812;8.562;2023-02-08T14:20:27;102481.91;;;6.61;35.75
62333;BME280;48624;49.812;8.562;2023-02-08T14:22:56;102483.47;;;7.58;35.01
62333;BME280;48624;49.812;8.562;2023-02-08T14:25:25;102473.41;;;8.12;35.25
62333;BME280;48624;49.812;8.562;2023-02-08T14:28:03;102483.38;;;7.61;34.51
62333;BME280;48624;49.812;8.562;2023-02-08T14:30:31;102479.22;;;7.50;34.55
62333;BME280;48624;49.812;8.562;2023-02-08T14:35:32;102478.50;;;7.82;34.77
62333;BME280;48624;49.812;8.562;2023-02-08T14:40:57;102457.13;;;7.93;34.61
62333;BME280;48624;49.812;8.562;2023-02-08T14:45:54;102466.28;;;7.77;34.18
62333;BME280;48624;49.812;8.562;2023-02-08T14:48:23;102450.53;;;7.74;34.15
62333;BME280;48624;49.812;8.562;2023-02-08T14:51:05;102455.53;;;8.22;34.81
62333;BME280;48624;49.812;8.562;2023-02-08T14:56:20;102453.56;;;9.26;33.73
62333;BME280;48624;49.812;8.562;2023-02-08T15:01:20;102449.47;;;8.86;32.81
62333;BME280;48624;49.812;8.562;2023-02-08T15:03:48;102447.16;;;9.35;32.87
62333;BME280;48624;49.812;8.562;2023-02-08T15:09:05;102444.75;;;8.96;33.16
62333;BME280;48624;49.812;8.562;2023-02-08T15:11:36;102433.00;;;9.36;32.97
62333;BME280;48624;49.812;8.562;2023-02-08T15:14:02;102428.06;;;8.94;32.63